sensor_id;sensor_type;location;lat;lon;timestamp;temperature;humidity
73277;DHT22;61501;43.316;5.372;2024-03-08T00:00:06;11.30;99.90
73277;DHT22;61501;43.316;5.372;2024-03-08T00:02:42;11.30;99.90
73277;DHT22;61501;43.316;5.372;2024-03-08T00:05:09;11.30;99.90
73277;DHT22;61501;43.316;5.372;2024-03-08T00:07:35;11.30;99.90
73277;DHT22;61501;43.316;5.372;2024-03-08T00:10:02;11.30;99.90
73277;DHT22;61501;43.316;5.372;2024-03-08T00:12:28;11.30;99.90
73277;DHT22;61501;43.316;5.372;2024-03-08T00:14:54;11.20;99.90
73277;DHT22;61501;43.316;5.372;2024-03-08T00:17:21;11.20;99.90
73277;DHT22;61501;43.316;5.372;2024-03-08T00:19:48;11.30;99.90
73277;DHT22;61501;43.316;5.372;2024-03-08T00:22:15;11.20;99.90
73277;DHT22;61501;43.316;5.372;2024-03-08T00:24:41;11.20;99.90
73277;DHT22;61501;43.316;5.372;2024-03-08T00:27:07;11.30;99.90
73277;DHT22;61501;43.316;5.372;2024-03-08T00:29:34;11.20;99.90
73277;DHT22;61501;43.316;5.372;2024-03-08T00:32:00;11.10;99.90
73277;DHT22;61501;43.316;5.372;2024-03-08T00:34:26;11.10;99.90
73277;DHT22;61501;43.316;5.372;2024-03-08T00:36:52;11.10;99.90
73277;DHT22;61501;43.316;5.372;2024-03-08T00:39:18;11.10;99.90
73277;DHT22;61501;43.316;5.372;2024-03-08T00:41:46;11.10;99.90
73277;DHT22;61501;43.316;5.372;2024-03-08T00:44:12;11.10;99.90
73277;DHT22;61501;43.316;5.372;2024-03-08T00:46:37;11.10;99.90
73277;DHT22;61501;43.316;5.372;2024-03-08T00:49:03;11.10;99.90
73277;DHT22;61501;43.316;5.372;2024-03-08T00:51:29;11.10;99.90
73277;DHT22;61501;43.316;5.372;2024-03-08T00:53:54;11.10;99.90
73277;DHT22;61501;43.316;5.372;2024-03-08T00:56:20;11.00;99.90
73277;DHT22;61501;43.316;5.372;2024-03-08T00:58:46;11.00;99.90
73277;DHT22;61501;43.316;5.372;2024-03-08T01:01:13;11.00;99.90
73277;DHT22;61501;43.316;5.372;2024-03-08T01:03:43;10.90;99.90
73277;DHT22;61501;43.316;5.372;2024-03-08T01:06:08;10.90;99.90
73277;DHT22;61501;43.316;5.372;2024-03-08T01:08:34;10.90;99.90
73277;DHT22;61501;43.316;5.372;2024-03-08T01:11:00;10.90;99.90
73277;DHT22;61501;43.316;5.372;2024-03-08T01:13:25;10.90;99.90
73277;DHT22;61501;43.316;5.372;2024-03-08T01:15:51;10.80;99.90
73277;DHT22;61501;43.316;5.372;2024-03-08T01:18:17;10.90;99.90
73277;DHT22;61501;43.316;5.372;2024-03-08T01:20:42;10.90;99.90
73277;DHT22;61501;43.316;5.372;2024-03-08T01:23:08;10.80;99.90
73277;DHT22;61501;43.316;5.372;2024-03-08T01:25:34;10.90;99.90
73277;DHT22;61501;43.316;5.372;2024-03-08T01:28:00;10.90;99.90
73277;DHT22;61501;43.316;5.372;2024-03-08T01:30:25;10.90;99.90
73277;DHT22;61501;43.316;5.372;2024-03-08T01:32:51;10.90;99.90
73277;DHT22;61501;43.316;5.372;2024-03-08T01:35:16;10.90;99.90
73277;DHT22;61501;43.316;5.372;2024-03-08T01:37:43;10.80;99.90
73277;DHT22;61501;43.316;5.372;2024-03-08T01:40:09;10.80;99.90
73277;DHT22;61501;43.316;5.372;2024-03-08T01:42:35;10.80;99.90
73277;DHT22;61501;43.316;5.372;2024-03-08T01:45:05;10.80;99.90
73277;DHT22;61501;43.316;5.372;2024-03-08T01:47:31;10.80;99.90
73277;DHT22;61501;43.316;5.372;2024-03-08T01:50:01;10.80;99.90
73277;DHT22;61501;43.316;5.372;2024-03-08T01:52:29;10.80;99.90
73277;DHT22;61501;43.316;5.372;2024-03-08T01:54:59;10.70;99.90
73277;DHT22;61501;43.316;5.372;2024-03-08T01:57:27;10.70;99.90
73277;DHT22;61501;43.316;5.372;2024-03-08T01:59:53;10.70;99.90
73277;DHT22;61501;43.316;5.372;2024-03-08T02:02:21;10.70;99.90
73277;DHT22;61501;43.316;5.372;2024-03-08T02:04:48;10.80;99.90
73277;DHT22;61501;43.316;5.372;2024-03-08T02:07:13;10.80;99.90
73277;DHT22;61501;43.316;5.372;2024-03-08T02:09:39;10.80;99.90
73277;DHT22;61501;43.316;5.372;2024-03-08T02:12:06;10.80;99.90
73277;DHT22;61501;43.316;5.372;2024-03-08T02:14:32;10.80;99.90
73277;DHT22;61501;43.316;5.372;2024-03-08T02:17:01;10.80;99.90
73277;DHT22;61501;43.316;5.372;2024-03-08T02:19:27;10.80;99.90
73277;DHT22;61501;43.316;5.372;2024-03-08T02:21:53;10.80;99.90
73277;DHT22;61501;43.316;5.372;2024-03-08T02:24:19;10.80;99.90
73277;DHT22;61501;43.316;5.372;2024-03-08T02:26:44;10.70;99.90
73277;DHT22;61501;43.316;5.372;2024-03-08T02:29:10;10.80;99.90
73277;DHT22;61501;43.316;5.372;2024-03-08T02:31:36;10.80;99.90
73277;DHT22;61501;43.316;5.372;2024-03-08T02:34:02;10.70;99.90
73277;DHT22;61501;43.316;5.372;2024-03-08T02:36:27;10.70;99.90
73277;DHT22;61501;43.316;5.372;2024-03-08T02:38:53;10.80;99.90
73277;DHT22;61501;43.316;5.372;2024-03-08T02:41:20;10.80;99.90
73277;DHT22;61501;43.316;5.372;2024-03-08T02:43:46;10.70;99.90
73277;DHT22;61501;43.316;5.372;2024-03-08T02:46:12;10.80;99.90
73277;DHT22;61501;43.316;5.372;2024-03-08T02:48:37;10.70;99.90
73277;DHT22;61501;43.316;5.372;2024-03-08T02:51:05;10.70;99.90
73277;DHT22;61501;43.316;5.372;2024-03-08T02:53:31;10.70;99.90
73277;DHT22;61501;43.316;5.372;2024-03-08T02:55:56;10.70;99.90
73277;DHT22;61501;43.316;5.372;2024-03-08T02:58:22;10.70;99.90
73277;DHT22;61501;43.316;5.372;2024-03-08T03:00:48;10.70;99.90
73277;DHT22;61501;43.316;5.372;2024-03-08T03:03:14;10.70;99.90
73277;DHT22;61501;43.316;5.372;2024-03-08T03:05:39;10.60;99.90
73277;DHT22;61501;43.316;5.372;2024-03-08T03:08:08;10.70;99.90
73277;DHT22;61501;43.316;5.372;2024-03-08T03:10:35;10.70;99.90
73277;DHT22;61501;43.316;5.372;2024-03-08T03:13:01;10.70;99.90
73277;DHT22;61501;43.316;5.372;2024-03-08T03:15:27;10.70;99.90
73277;DHT22;61501;43.316;5.372;2024-03-08T03:17:52;10.60;99.90
73277;DHT22;61501;43.316;5.372;2024-03-08T03:20:18;10.60;99.90
73277;DHT22;61501;43.316;5.372;2024-03-08T03:22:58;10.60;99.90
73277;DHT22;61501;43.316;5.372;2024-03-08T03:25:26;10.60;99.90
73277;DHT22;61501;43.316;5.372;2024-03-08T03:27:58;10.60;99.90
73277;DHT22;61501;43.316;5.372;2024-03-08T03:30:24;10.50;99.90
73277;DHT22;61501;43.316;5.372;2024-03-08T03:32:52;10.40;99.90
73277;DHT22;61501;43.316;5.372;2024-03-08T03:35:20;10.50;99.90
73277;DHT22;61501;43.316;5.372;2024-03-08T03:37:47;10.60;99.90
73277;DHT22;61501;43.316;5.372;2024-03-08T03:40:48;10.60;99.90
73277;DHT22;61501;43.316;5.372;2024-03-08T03:43:14;10.60;99.90
73277;DHT22;61501;43.316;5.372;2024-03-08T03:45:40;10.70;99.90
73277;DHT22;61501;43.316;5.372;2024-03-08T03:48:07;10.70;99.90
73277;DHT22;61501;43.316;5.372;2024-03-08T03:50:34;10.70;99.90
73277;DHT22;61501;43.316;5.372;2024-03-08T03:53:00;10.80;99.90
73277;DHT22;61501;43.316;5.372;2024-03-08T03:55:26;10.80;99.90
73277;DHT22;61501;43.316;5.372;2024-03-08T03:57:52;10.80;99.90
73277;DHT22;61501;43.316;5.372;2024-03-08T04:00:18;10.80;99.90
73277;DHT22;61501;43.316;5.372;2024-03-08T04:02:44;10.80;99.90
73277;DHT22;61501;43.316;5.372;2024-03-08T04:05:10;10.70;99.90
73277;DHT22;61501;43.316;5.372;2024-03-08T04:07:37;10.80;99.90
73277;DHT22;61501;43.316;5.372;2024-03-08T04:10:04;10.80;99.90
73277;DHT22;61501;43.316;5.372;2024-03-08T04:12:34;10.80;99.90
73277;DHT22;61501;43.316;5.372;2024-03-08T04:15:00;10.80;99.90
73277;DHT22;61501;43.316;5.372;2024-03-08T04:17:26;10.80;99.90
73277;DHT22;61501;43.316;5.372;2024-03-08T04:19:52;10.80;99.90
73277;DHT22;61501;43.316;5.372;2024-03-08T04:22:18;10.80;99.90
73277;DHT22;61501;43.316;5.372;2024-03-08T04:24:44;10.80;99.90
73277;DHT22;61501;43.316;5.372;2024-03-08T04:27:11;10.90;99.90
73277;DHT22;61501;43.316;5.372;2024-03-08T04:29:36;10.80;99.90
73277;DHT22;61501;43.316;5.372;2024-03-08T04:32:03;10.80;99.90
73277;DHT22;61501;43.316;5.372;2024-03-08T04:34:30;10.90;99.90
73277;DHT22;61501;43.316;5.372;2024-03-08T04:36:59;10.90;99.90
73277;DHT22;61501;43.316;5.372;2024-03-08T04:39:25;10.90;99.90
73277;DHT22;61501;43.316;5.372;2024-03-08T04:41:53;10.90;99.90
73277;DHT22;61501;43.316;5.372;2024-03-08T04:44:20;11.00;99.90
73277;DHT22;61501;43.316;5.372;2024-03-08T04:46:46;11.00;99.90
73277;DHT22;61501;43.316;5.372;2024-03-08T04:49:12;11.00;99.90
73277;DHT22;61501;43.316;5.372;2024-03-08T04:51:38;11.10;99.90
73277;DHT22;61501;43.316;5.372;2024-03-08T04:54:04;11.10;99.90
73277;DHT22;61501;43.316;5.372;2024-03-08T04:56:32;11.30;99.90
73277;DHT22;61501;43.316;5.372;2024-03-08T04:58:59;11.30;99.90
73277;DHT22;61501;43.316;5.372;2024-03-08T05:01:24;11.20;99.90
73277;DHT22;61501;43.316;5.372;2024-03-08T05:03:50;11.30;99.90
73277;DHT22;61501;43.316;5.372;2024-03-08T05:06:16;11.30;99.90
73277;DHT22;61501;43.316;5.372;2024-03-08T05:08:42;11.30;99.90
73277;DHT22;61501;43.316;5.372;2024-03-08T05:11:08;11.30;99.90
73277;DHT22;61501;43.316;5.372;2024-03-08T05:13:34;11.30;99.90
73277;DHT22;61501;43.316;5.372;2024-03-08T05:16:00;11.30;99.90
73277;DHT22;61501;43.316;5.372;2024-03-08T05:18:26;11.30;99.90
73277;DHT22;61501;43.316;5.372;2024-03-08T05:20:54;11.30;99.90
73277;DHT22;61501;43.316;5.372;2024-03-08T05:23:19;11.30;99.90
73277;DHT22;61501;43.316;5.372;2024-03-08T05:25:46;11.30;99.90
73277;DHT22;61501;43.316;5.372;2024-03-08T05:28:14;11.30;99.90
73277;DHT22;61501;43.316;5.372;2024-03-08T05:30:40;11.40;99.90
73277;DHT22;61501;43.316;5.372;2024-03-08T05:33:06;11.50;99.90
73277;DHT22;61501;43.316;5.372;2024-03-08T05:35:36;11.40;99.90
73277;DHT22;61501;43.316;5.372;2024-03-08T05:38:01;11.40;99.90
73277;DHT22;61501;43.316;5.372;2024-03-08T05:40:27;11.50;99.90
73277;DHT22;61501;43.316;5.372;2024-03-08T05:43:00;11.50;99.90
73277;DHT22;61501;43.316;5.372;2024-03-08T05:45:25;11.50;99.90
73277;DHT22;61501;43.316;5.372;2024-03-08T05:47:52;11.40;99.90
73277;DHT22;61501;43.316;5.372;2024-03-08T05:50:18;11.40;99.90
73277;DHT22;61501;43.316;5.372;2024-03-08T05:52:45;11.50;99.90
73277;DHT22;61501;43.316;5.372;2024-03-08T05:55:10;11.40;99.90
73277;DHT22;61501;43.316;5.372;2024-03-08T05:57:36;11.40;99.90
73277;DHT22;61501;43.316;5.372;2024-03-08T06:00:05;11.50;99.90
73277;DHT22;61501;43.316;5.372;2024-03-08T06:02:31;11.50;99.90
73277;DHT22;61501;43.316;5.372;2024-03-08T06:04:57;11.50;99.90
73277;DHT22;61501;43.316;5.372;2024-03-08T06:07:22;11.50;99.90
73277;DHT22;61501;43.316;5.372;2024-03-08T06:09:48;11.50;99.90
73277;DHT22;61501;43.316;5.372;2024-03-08T06:12:14;11.60;99.90
73277;DHT22;61501;43.316;5.372;2024-03-08T06:14:45;11.60;99.90
73277;DHT22;61501;43.316;5.372;2024-03-08T06:17:10;11.70;99.90
73277;DHT22;61501;43.316;5.372;2024-03-08T06:19:36;11.80;99.90
73277;DHT22;61501;43.316;5.372;2024-03-08T06:22:02;11.70;99.90
73277;DHT22;61501;43.316;5.372;2024-03-08T06:24:31;11.80;99.90
73277;DHT22;61501;43.316;5.372;2024-03-08T06:26:57;11.80;99.90
73277;DHT22;61501;43.316;5.372;2024-03-08T06:29:23;11.80;99.90
73277;DHT22;61501;43.316;5.372;2024-03-08T06:31:49;11.80;99.90
73277;DHT22;61501;43.316;5.372;2024-03-08T06:34:15;11.70;99.90
73277;DHT22;61501;43.316;5.372;2024-03-08T06:36:41;11.70;99.90
73277;DHT22;61501;43.316;5.372;2024-03-08T06:39:06;11.70;99.90
73277;DHT22;61501;43.316;5.372;2024-03-08T06:41:36;11.80;99.90
73277;DHT22;61501;43.316;5.372;2024-03-08T06:44:02;11.80;99.90
73277;DHT22;61501;43.316;5.372;2024-03-08T06:46:27;11.80;99.90
73277;DHT22;61501;43.316;5.372;2024-03-08T06:48:53;11.80;99.90
73277;DHT22;61501;43.316;5.372;2024-03-08T06:51:19;11.90;99.90
73277;DHT22;61501;43.316;5.372;2024-03-08T06:53:45;11.90;99.90
73277;DHT22;61501;43.316;5.372;2024-03-08T06:56:11;11.80;99.90
73277;DHT22;61501;43.316;5.372;2024-03-08T06:58:41;11.70;99.90
73277;DHT22;61501;43.316;5.372;2024-03-08T07:01:07;11.80;99.90
73277;DHT22;61501;43.316;5.372;2024-03-08T07:03:41;11.80;99.90
73277;DHT22;61501;43.316;5.372;2024-03-08T07:06:10;11.80;99.90
73277;DHT22;61501;43.316;5.372;2024-03-08T07:08:35;11.80;99.90
73277;DHT22;61501;43.316;5.372;2024-03-08T07:11:01;11.80;99.90
73277;DHT22;61501;43.316;5.372;2024-03-08T07:13:27;11.80;99.90
73277;DHT22;61501;43.316;5.372;2024-03-08T07:15:53;11.80;99.90
73277;DHT22;61501;43.316;5.372;2024-03-08T07:18:20;11.80;99.90
73277;DHT22;61501;43.316;5.372;2024-03-08T07:20:50;11.80;99.90
73277;DHT22;61501;43.316;5.372;2024-03-08T07:23:16;11.90;99.90
73277;DHT22;61501;43.316;5.372;2024-03-08T07:26:00;12.10;99.90
73277;DHT22;61501;43.316;5.372;2024-03-08T07:28:26;12.10;99.90
73277;DHT22;61501;43.316;5.372;2024-03-08T07:30:53;12.00;99.90
73277;DHT22;61501;43.316;5.372;2024-03-08T07:33:26;12.10;99.90
73277;DHT22;61501;43.316;5.372;2024-03-08T07:35:52;12.10;99.90
73277;DHT22;61501;43.316;5.372;2024-03-08T07:38:19;12.00;99.90
73277;DHT22;61501;43.316;5.372;2024-03-08T07:40:46;12.00;99.90
73277;DHT22;61501;43.316;5.372;2024-03-08T07:43:13;12.00;99.90
73277;DHT22;61501;43.316;5.372;2024-03-08T07:45:39;12.20;99.90
73277;DHT22;61501;43.316;5.372;2024-03-08T07:48:05;12.20;99.90
73277;DHT22;61501;43.316;5.372;2024-03-08T07:50:36;12.10;99.90
73277;DHT22;61501;43.316;5.372;2024-03-08T07:53:02;12.20;99.90
73277;DHT22;61501;43.316;5.372;2024-03-08T07:55:29;12.30;99.90
73277;DHT22;61501;43.316;5.372;2024-03-08T07:57:56;12.30;99.90
73277;DHT22;61501;43.316;5.372;2024-03-08T08:00:22;12.40;99.90
73277;DHT22;61501;43.316;5.372;2024-03-08T08:02:52;12.40;99.90
73277;DHT22;61501;43.316;5.372;2024-03-08T08:05:17;12.50;99.90
73277;DHT22;61501;43.316;5.372;2024-03-08T08:07:46;12.50;99.90
73277;DHT22;61501;43.316;5.372;2024-03-08T08:10:13;12.40;99.90
73277;DHT22;61501;43.316;5.372;2024-03-08T08:12:47;12.40;99.90
73277;DHT22;61501;43.316;5.372;2024-03-08T08:15:13;12.50;99.90
73277;DHT22;61501;43.316;5.372;2024-03-08T08:17:41;12.60;99.90
73277;DHT22;61501;43.316;5.372;2024-03-08T08:20:08;12.40;99.90
73277;DHT22;61501;43.316;5.372;2024-03-08T08:22:34;12.40;99.90
73277;DHT22;61501;43.316;5.372;2024-03-08T08:25:00;12.40;99.90
73277;DHT22;61501;43.316;5.372;2024-03-08T08:27:25;12.40;99.90
73277;DHT22;61501;43.316;5.372;2024-03-08T08:29:51;12.40;99.90
73277;DHT22;61501;43.316;5.372;2024-03-08T08:32:17;12.40;99.90
73277;DHT22;61501;43.316;5.372;2024-03-08T08:34:44;12.40;99.90
73277;DHT22;61501;43.316;5.372;2024-03-08T08:37:10;12.50;99.90
73277;DHT22;61501;43.316;5.372;2024-03-08T08:39:35;12.40;99.90
73277;DHT22;61501;43.316;5.372;2024-03-08T08:42:03;12.40;99.90
73277;DHT22;61501;43.316;5.372;2024-03-08T08:44:29;12.40;99.90
73277;DHT22;61501;43.316;5.372;2024-03-08T08:46:56;12.40;99.90
73277;DHT22;61501;43.316;5.372;2024-03-08T08:49:22;12.50;99.90
73277;DHT22;61501;43.316;5.372;2024-03-08T08:51:52;12.50;99.90
73277;DHT22;61501;43.316;5.372;2024-03-08T08:54:18;12.50;99.90
73277;DHT22;61501;43.316;5.372;2024-03-08T08:56:44;12.50;99.90
73277;DHT22;61501;43.316;5.372;2024-03-08T08:59:10;12.50;99.90
73277;DHT22;61501;43.316;5.372;2024-03-08T09:01:39;12.50;99.90
73277;DHT22;61501;43.316;5.372;2024-03-08T09:04:05;12.60;99.90
73277;DHT22;61501;43.316;5.372;2024-03-08T09:06:31;12.60;99.90
73277;DHT22;61501;43.316;5.372;2024-03-08T09:08:57;12.70;99.90
73277;DHT22;61501;43.316;5.372;2024-03-08T09:11:23;12.70;99.90
73277;DHT22;61501;43.316;5.372;2024-03-08T09:13:50;12.70;99.90
73277;DHT22;61501;43.316;5.372;2024-03-08T09:16:16;12.70;99.90
73277;DHT22;61501;43.316;5.372;2024-03-08T09:18:42;12.80;99.90
73277;DHT22;61501;43.316;5.372;2024-03-08T09:21:07;12.80;99.90
73277;DHT22;61501;43.316;5.372;2024-03-08T09:23:35;12.80;99.90
73277;DHT22;61501;43.316;5.372;2024-03-08T09:26:01;12.80;99.90
73277;DHT22;61501;43.316;5.372;2024-03-08T09:28:28;12.80;99.90
73277;DHT22;61501;43.316;5.372;2024-03-08T09:30:54;12.80;99.90
73277;DHT22;61501;43.316;5.372;2024-03-08T09:33:20;12.90;99.90
73277;DHT22;61501;43.316;5.372;2024-03-08T09:35:46;12.80;99.90
73277;DHT22;61501;43.316;5.372;2024-03-08T09:38:14;12.90;99.90
73277;DHT22;61501;43.316;5.372;2024-03-08T09:40:43;13.10;99.90
73277;DHT22;61501;43.316;5.372;2024-03-08T09:43:12;13.10;99.90
73277;DHT22;61501;43.316;5.372;2024-03-08T09:45:38;13.10;99.90
73277;DHT22;61501;43.316;5.372;2024-03-08T09:48:10;13.10;99.90
73277;DHT22;61501;43.316;5.372;2024-03-08T09:50:42;13.10;99.90
73277;DHT22;61501;43.316;5.372;2024-03-08T09:53:09;13.10;99.90
73277;DHT22;61501;43.316;5.372;2024-03-08T09:55:37;13.10;99.90
73277;DHT22;61501;43.316;5.372;2024-03-08T09:58:06;13.20;99.90
73277;DHT22;61501;43.316;5.372;2024-03-08T10:00:50;13.20;99.90
73277;DHT22;61501;43.316;5.372;2024-03-08T10:03:16;13.10;99.90
73277;DHT22;61501;43.316;5.372;2024-03-08T10:05:41;13.10;99.90
73277;DHT22;61501;43.316;5.372;2024-03-08T10:08:08;13.10;99.90
73277;DHT22;61501;43.316;5.372;2024-03-08T10:10:34;13.10;99.90
73277;DHT22;61501;43.316;5.372;2024-03-08T10:13:01;13.20;99.90
73277;DHT22;61501;43.316;5.372;2024-03-08T10:15:30;13.20;99.90
73277;DHT22;61501;43.316;5.372;2024-03-08T10:17:58;13.20;99.90
73277;DHT22;61501;43.316;5.372;2024-03-08T10:20:24;13.20;99.90
73277;DHT22;61501;43.316;5.372;2024-03-08T10:22:50;13.10;99.90
73277;DHT22;61501;43.316;5.372;2024-03-08T10:25:16;13.00;99.90
73277;DHT22;61501;43.316;5.372;2024-03-08T10:27:42;13.10;99.90
73277;DHT22;61501;43.316;5.372;2024-03-08T10:30:15;13.00;99.90
73277;DHT22;61501;43.316;5.372;2024-03-08T10:32:47;13.00;99.90
73277;DHT22;61501;43.316;5.372;2024-03-08T10:35:13;13.00;99.90
73277;DHT22;61501;43.316;5.372;2024-03-08T10:37:50;12.80;99.90
73277;DHT22;61501;43.316;5.372;2024-03-08T10:40:24;12.80;99.90
73277;DHT22;61501;43.316;5.372;2024-03-08T10:42:57;12.80;99.90
73277;DHT22;61501;43.316;5.372;2024-03-08T10:45:39;12.70;99.90
73277;DHT22;61501;43.316;5.372;2024-03-08T10:48:30;12.50;99.90
73277;DHT22;61501;43.316;5.372;2024-03-08T10:51:02;12.40;99.90
73277;DHT22;61501;43.316;5.372;2024-03-08T10:53:29;12.30;99.90
73277;DHT22;61501;43.316;5.372;2024-03-08T10:55:57;12.20;99.90
73277;DHT22;61501;43.316;5.372;2024-03-08T10:58:26;12.30;99.90
73277;DHT22;61501;43.316;5.372;2024-03-08T11:00:56;12.20;99.90
73277;DHT22;61501;43.316;5.372;2024-03-08T11:06:17;12.00;99.90
73277;DHT22;61501;43.316;5.372;2024-03-08T11:08:46;11.90;99.90
73277;DHT22;61501;43.316;5.372;2024-03-08T11:11:29;11.90;99.90
73277;DHT22;61501;43.316;5.372;2024-03-08T11:13:56;11.80;99.90
73277;DHT22;61501;43.316;5.372;2024-03-08T11:18:55;11.70;99.90
73277;DHT22;61501;43.316;5.372;2024-03-08T11:21:25;11.60;99.90
73277;DHT22;61501;43.316;5.372;2024-03-08T11:24:11;11.60;99.90
73277;DHT22;61501;43.316;5.372;2024-03-08T11:26:39;11.70;99.90
73277;DHT22;61501;43.316;5.372;2024-03-08T11:31:52;11.70;99.90
73277;DHT22;61501;43.316;5.372;2024-03-08T11:34:29;11.70;99.90
73277;DHT22;61501;43.316;5.372;2024-03-08T11:36:56;11.60;99.90
73277;DHT22;61501;43.316;5.372;2024-03-08T11:39:22;11.70;99.90
73277;DHT22;61501;43.316;5.372;2024-03-08T11:41:49;11.70;99.90
73277;DHT22;61501;43.316;5.372;2024-03-08T11:44:15;11.70;99.90
73277;DHT22;61501;43.316;5.372;2024-03-08T11:46:42;11.70;99.90
73277;DHT22;61501;43.316;5.372;2024-03-08T11:49:12;11.60;99.90
73277;DHT22;61501;43.316;5.372;2024-03-08T11:51:38;11.60;99.90
73277;DHT22;61501;43.316;5.372;2024-03-08T11:54:04;11.60;99.90
73277;DHT22;61501;43.316;5.372;2024-03-08T11:56:31;11.50;99.90
73277;DHT22;61501;43.316;5.372;2024-03-08T11:58:57;11.50;99.90
73277;DHT22;61501;43.316;5.372;2024-03-08T12:01:23;11.50;99.90
73277;DHT22;61501;43.316;5.372;2024-03-08T12:03:53;11.50;99.90
73277;DHT22;61501;43.316;5.372;2024-03-08T12:06:19;11.50;99.90
73277;DHT22;61501;43.316;5.372;2024-03-08T12:08:46;11.50;99.90
73277;DHT22;61501;43.316;5.372;2024-03-08T12:11:14;11.50;99.90
73277;DHT22;61501;43.316;5.372;2024-03-08T12:13:41;11.50;99.90
73277;DHT22;61501;43.316;5.372;2024-03-08T12:16:07;11.50;99.90
73277;DHT22;61501;43.316;5.372;2024-03-08T12:18:56;11.60;99.90
73277;DHT22;61501;43.316;5.372;2024-03-08T12:21:57;11.60;99.90
73277;DHT22;61501;43.316;5.372;2024-03-08T12:24:23;11.70;99.90
73277;DHT22;61501;43.316;5.372;2024-03-08T12:26:48;11.80;99.90
73277;DHT22;61501;43.316;5.372;2024-03-08T12:31:46;11.80;99.90
73277;DHT22;61501;43.316;5.372;2024-03-08T12:34:12;11.70;99.90
73277;DHT22;61501;43.316;5.372;2024-03-08T12:36:47;11.70;99.90
73277;DHT22;61501;43.316;5.372;2024-03-08T12:39:16;11.80;99.90
73277;DHT22;61501;43.316;5.372;2024-03-08T12:41:42;11.80;99.90
73277;DHT22;61501;43.316;5.372;2024-03-08T12:44:09;11.80;99.90
73277;DHT22;61501;43.316;5.372;2024-03-08T12:46:37;11.70;99.90
73277;DHT22;61501;43.316;5.372;2024-03-08T12:49:09;11.70;99.90
73277;DHT22;61501;43.316;5.372;2024-03-08T12:51:35;11.60;99.90
73277;DHT22;61501;43.316;5.372;2024-03-08T12:54:02;11.70;99.90
73277;DHT22;61501;43.316;5.372;2024-03-08T12:56:32;11.70;99.90
73277;DHT22;61501;43.316;5.372;2024-03-08T12:59:02;11.80;99.90
73277;DHT22;61501;43.316;5.372;2024-03-08T13:01:31;11.70;99.90
73277;DHT22;61501;43.316;5.372;2024-03-08T13:03:58;11.60;99.90
73277;DHT22;61501;43.316;5.372;2024-03-08T13:06:24;11.60;99.90
73277;DHT22;61501;43.316;5.372;2024-03-08T13:08:53;11.60;99.90
73277;DHT22;61501;43.316;5.372;2024-03-08T13:11:19;11.50;99.90
73277;DHT22;61501;43.316;5.372;2024-03-08T13:13:46;11.40;99.90
73277;DHT22;61501;43.316;5.372;2024-03-08T13:16:11;11.40;99.90
73277;DHT22;61501;43.316;5.372;2024-03-08T13:18:40;11.40;99.90
73277;DHT22;61501;43.316;5.372;2024-03-08T13:21:07;11.30;99.90
73277;DHT22;61501;43.316;5.372;2024-03-08T13:23:34;11.30;99.90
73277;DHT22;61501;43.316;5.372;2024-03-08T13:26:09;11.30;99.90
73277;DHT22;61501;43.316;5.372;2024-03-08T13:28:37;11.20;99.90
73277;DHT22;61501;43.316;5.372;2024-03-08T13:31:06;11.30;99.90
73277;DHT22;61501;43.316;5.372;2024-03-08T13:33:35;11.30;99.90
73277;DHT22;61501;43.316;5.372;2024-03-08T13:36:08;11.20;99.90
73277;DHT22;61501;43.316;5.372;2024-03-08T13:38:47;11.10;99.90
73277;DHT22;61501;43.316;5.372;2024-03-08T13:41:14;11.10;99.90
73277;DHT22;61501;43.316;5.372;2024-03-08T13:43:45;11.00;99.90
73277;DHT22;61501;43.316;5.372;2024-03-08T13:46:11;11.00;99.90
73277;DHT22;61501;43.316;5.372;2024-03-08T13:48:37;10.90;99.90
73277;DHT22;61501;43.316;5.372;2024-03-08T13:51:07;10.90;99.90
73277;DHT22;61501;43.316;5.372;2024-03-08T13:53:33;10.90;99.90
73277;DHT22;61501;43.316;5.372;2024-03-08T13:56:03;10.90;99.90
73277;DHT22;61501;43.316;5.372;2024-03-08T13:58:29;10.80;99.90
73277;DHT22;61501;43.316;5.372;2024-03-08T14:00:55;10.80;99.90
73277;DHT22;61501;43.316;5.372;2024-03-08T14:03:21;10.80;99.90
73277;DHT22;61501;43.316;5.372;2024-03-08T14:05:47;10.80;99.90
73277;DHT22;61501;43.316;5.372;2024-03-08T14:08:12;10.80;99.90
73277;DHT22;61501;43.316;5.372;2024-03-08T14:10:39;10.70;99.90
73277;DHT22;61501;43.316;5.372;2024-03-08T14:13:05;10.80;99.90
73277;DHT22;61501;43.316;5.372;2024-03-08T14:15:32;10.70;99.90
73277;DHT22;61501;43.316;5.372;2024-03-08T14:17:58;10.80;99.90
73277;DHT22;61501;43.316;5.372;2024-03-08T14:20:25;10.70;99.90
73277;DHT22;61501;43.316;5.372;2024-03-08T14:22:54;10.70;99.90
73277;DHT22;61501;43.316;5.372;2024-03-08T14:25:20;10.60;99.90
73277;DHT22;61501;43.316;5.372;2024-03-08T14:27:49;10.70;99.90
73277;DHT22;61501;43.316;5.372;2024-03-08T14:30:15;10.70;99.90
73277;DHT22;61501;43.316;5.372;2024-03-08T14:33:03;10.70;99.90
73277;DHT22;61501;43.316;5.372;2024-03-08T14:35:31;10.70;99.90
73277;DHT22;61501;43.316;5.372;2024-03-08T14:37:57;10.70;99.90
73277;DHT22;61501;43.316;5.372;2024-03-08T14:40:23;10.70;99.90
73277;DHT22;61501;43.316;5.372;2024-03-08T14:42:49;10.70;99.90
73277;DHT22;61501;43.316;5.372;2024-03-08T14:45:16;10.70;99.90
73277;DHT22;61501;43.316;5.372;2024-03-08T14:47:42;10.60;99.90
73277;DHT22;61501;43.316;5.372;2024-03-08T14:50:08;10.60;99.90
73277;DHT22;61501;43.316;5.372;2024-03-08T14:52:37;10.60;99.90
73277;DHT22;61501;43.316;5.372;2024-03-08T14:55:05;10.60;99.90
73277;DHT22;61501;43.316;5.372;2024-03-08T14:57:32;10.60;99.90
73277;DHT22;61501;43.316;5.372;2024-03-08T14:59:58;10.60;99.90
73277;DHT22;61501;43.316;5.372;2024-03-08T15:02:34;10.60;99.90
73277;DHT22;61501;43.316;5.372;2024-03-08T15:05:05;10.60;99.90
73277;DHT22;61501;43.316;5.372;2024-03-08T15:07:39;10.60;99.90
73277;DHT22;61501;43.316;5.372;2024-03-08T15:10:09;10.60;99.90
73277;DHT22;61501;43.316;5.372;2024-03-08T15:12:41;10.60;99.90
73277;DHT22;61501;43.316;5.372;2024-03-08T15:15:12;10.50;99.90
73277;DHT22;61501;43.316;5.372;2024-03-08T15:17:40;10.50;99.90
73277;DHT22;61501;43.316;5.372;2024-03-08T15:20:07;10.50;99.90
73277;DHT22;61501;43.316;5.372;2024-03-08T15:22:46;10.50;99.90
73277;DHT22;61501;43.316;5.372;2024-03-08T15:25:12;10.50;99.90
73277;DHT22;61501;43.316;5.372;2024-03-08T15:27:42;10.50;99.90
73277;DHT22;61501;43.316;5.372;2024-03-08T15:30:08;10.60;99.90
73277;DHT22;61501;43.316;5.372;2024-03-08T15:32:39;10.50;99.90
73277;DHT22;61501;43.316;5.372;2024-03-08T15:35:07;10.50;99.90
73277;DHT22;61501;43.316;5.372;2024-03-08T15:37:33;10.50;99.90
73277;DHT22;61501;43.316;5.372;2024-03-08T15:39:59;10.50;99.90
73277;DHT22;61501;43.316;5.372;2024-03-08T15:42:25;10.50;99.90